createdAt,value
2023-05-14T00:00:59.284Z,54.69
2023-05-14T00:01:59.409Z,59.84
2023-05-14T00:02:59.470Z,54.51
2023-05-14T00:03:59.382Z,57.05
2023-05-14T00:04:59.255Z,52.98
2023-05-14T00:05:59.238Z,64.72
2023-05-14T00:06:59.288Z,54.38
2023-05-14T00:07:59.214Z,58.39
2023-05-14T00:08:59.211Z,53.76
2023-05-14T00:09:59.203Z,55.84
2023-05-14T00:10:59.254Z,61.17
2023-05-14T00:11:59.222Z,61.33
2023-05-14T00:12:59.186Z,60.39
2023-05-14T00:13:59.172Z,53.79
2023-05-14T00:14:59.151Z,65.55
2023-05-14T00:15:59.182Z,64.23
2023-05-14T00:16:59.174Z,57.30
2023-05-14T00:17:59.226Z,58.55
2023-05-14T00:18:59.143Z,64.91
2023-05-14T00:19:59.136Z,57.28
2023-05-14T00:20:59.127Z,62.81
2023-05-14T00:21:59.120Z,53.68
2023-05-14T00:22:59.135Z,53.50
2023-05-14T00:23:59.106Z,59.44
2023-05-14T00:24:59.105Z,64.77
2023-05-14T00:25:59.105Z,57.08
2023-05-14T00:26:59.082Z,55.13
2023-05-14T00:27:59.150Z,58.52
2023-05-14T00:28:59.072Z,59.92
2023-05-14T00:29:59.080Z,55.14
2023-05-14T00:30:59.087Z,61.86
2023-05-14T00:31:59.049Z,60.72
2023-05-14T00:32:59.109Z,55.84
2023-05-14T00:34:00.051Z,60.85
2023-05-14T00:34:59.042Z,56.36
2023-05-14T00:35:59.048Z,54.68
2023-05-14T00:36:59.029Z,57.15
2023-05-14T00:37:59.016Z,60.89
2023-05-14T00:38:59.028Z,52.91
2023-05-14T00:39:59.008Z,60.63
2023-05-14T00:40:58.996Z,52.69
2023-05-14T00:41:58.998Z,54.01
2023-05-14T00:42:59.433Z,53.73
2023-05-14T00:43:59.007Z,54.39
2023-05-14T00:44:58.992Z,58.74
2023-05-14T00:45:58.993Z,58.97
2023-05-14T00:46:59.088Z,55.78
2023-05-14T00:47:59.011Z,61.82
2023-05-14T00:48:58.984Z,53.71
2023-05-14T00:49:58.966Z,53.62
2023-05-14T00:50:58.940Z,54.62
2023-05-14T00:51:58.961Z,55.60
2023-05-14T00:52:58.980Z,60.63
2023-05-14T00:53:58.948Z,61.08
2023-05-14T00:54:58.950Z,55.97
2023-05-14T00:55:58.925Z,58.09
2023-05-14T00:56:58.908Z,62.79
2023-05-14T00:57:58.949Z,61.60
2023-05-14T00:58:58.910Z,56.61
2023-05-14T00:59:58.886Z,54.61
2023-05-14T01:00:58.948Z,54.23
2023-05-14T01:01:58.915Z,54.42
2023-05-14T01:02:58.915Z,62.22
2023-05-14T01:03:59.027Z,58.81
2023-05-14T01:04:58.882Z,58.92
2023-05-14T01:05:58.963Z,53.99
2023-05-14T01:06:58.860Z,58.61
2023-05-14T01:07:58.878Z,52.98
2023-05-14T01:08:58.851Z,52.83
2023-05-14T01:09:58.840Z,56.82
2023-05-14T01:10:58.865Z,53.46
2023-05-14T01:11:58.852Z,60.38
2023-05-14T01:12:58.856Z,61.52
2023-05-14T01:13:58.843Z,53.31
2023-05-14T01:14:58.805Z,52.73
2023-05-14T01:15:58.846Z,58.01
2023-05-14T01:16:58.816Z,53.43
2023-05-14T01:17:58.863Z,56.09
2023-05-14T01:18:58.909Z,53.68
2023-05-14T01:19:58.814Z,65.97
2023-05-14T01:20:58.768Z,62.79
2023-05-14T01:21:58.790Z,59.25
2023-05-14T01:22:58.782Z,53.85
2023-05-14T01:23:58.773Z,53.54
2023-05-14T01:24:58.755Z,61.53
2023-05-14T01:25:58.879Z,52.93
2023-05-14T01:26:58.730Z,53.62
2023-05-14T01:27:58.737Z,57.66
2023-05-14T01:28:58.739Z,52.90
2023-05-14T01:29:58.711Z,57.91
2023-05-14T01:30:58.814Z,60.48
2023-05-14T01:31:58.753Z,55.28
2023-05-14T01:32:58.752Z,54.18
2023-05-14T01:33:58.690Z,54.17
2023-05-14T01:34:58.701Z,54.87
2023-05-14T01:35:58.845Z,56.82
2023-05-14T01:36:58.717Z,65.69
2023-05-14T01:37:58.688Z,54.98
2023-05-14T01:38:58.712Z,63.36
2023-05-14T01:39:58.734Z,54.11
2023-05-14T01:40:58.720Z,59.35
2023-05-14T01:41:58.689Z,54.87
2023-05-14T01:42:58.729Z,55.31
2023-05-14T01:43:58.697Z,57.02
2023-05-14T01:44:58.633Z,54.66
2023-05-14T01:45:58.684Z,63.59
2023-05-14T01:46:58.622Z,62.20
2023-05-14T01:47:58.734Z,62.26
2023-05-14T01:48:58.664Z,56.28
2023-05-14T01:49:58.626Z,54.10
2023-05-14T01:50:58.640Z,54.19
2023-05-14T01:51:58.638Z,54.07
2023-05-14T01:52:58.659Z,55.86
2023-05-14T01:53:58.621Z,56.76
2023-05-14T01:54:58.609Z,53.86
2023-05-14T01:55:58.616Z,58.71
2023-05-14T01:56:58.652Z,63.50
2023-05-14T01:57:58.657Z,54.98
2023-05-14T01:58:58.642Z,59.19
2023-05-14T01:59:58.580Z,54.04
2023-05-14T02:00:58.737Z,53.94
2023-05-14T02:01:58.857Z,61.64
2023-05-14T02:02:58.631Z,56.56
2023-05-14T02:03:58.673Z,54.02
2023-05-14T02:04:58.612Z,53.81
2023-05-14T02:05:58.524Z,54.00
2023-05-14T02:06:58.571Z,53.41
2023-05-14T02:07:58.538Z,53.94
2023-05-14T02:08:58.499Z,57.66
2023-05-14T02:09:58.510Z,60.75
2023-05-14T02:10:58.500Z,57.43
2023-05-14T02:11:58.496Z,56.17
2023-05-14T02:12:58.527Z,57.01
2023-05-14T02:13:58.469Z,59.46
2023-05-14T02:14:58.468Z,58.20
2023-05-14T02:15:58.594Z,55.17
2023-05-14T02:16:58.482Z,56.06
2023-05-14T02:17:58.498Z,55.95
2023-05-14T02:18:58.464Z,62.02
2023-05-14T02:19:58.440Z,54.72
2023-05-14T02:20:58.441Z,63.23
2023-05-14T02:21:58.427Z,54.73
2023-05-14T02:22:58.430Z,56.52
2023-05-14T02:23:58.430Z,56.33
2023-05-14T02:24:58.416Z,54.51
2023-05-14T02:25:58.414Z,54.99
2023-05-14T02:26:59.414Z,61.34
2023-05-14T02:27:58.385Z,55.17
2023-05-14T02:28:58.397Z,63.61
2023-05-14T02:29:58.386Z,55.15
2023-05-14T02:30:58.427Z,55.76
2023-05-14T02:31:58.429Z,60.37
2023-05-14T02:32:58.431Z,59.63
2023-05-14T02:33:58.371Z,60.48
2023-05-14T02:34:58.378Z,56.46
2023-05-14T02:35:58.353Z,56.46
2023-05-14T02:36:58.340Z,56.93
2023-05-14T02:37:58.332Z,59.45
2023-05-14T02:38:58.378Z,57.08
2023-05-14T02:39:58.323Z,57.76
2023-05-14T02:40:58.323Z,57.81
2023-05-14T02:41:58.305Z,58.16
2023-05-14T02:42:58.302Z,57.76
2023-05-14T02:43:58.318Z,57.57
2023-05-14T02:44:58.289Z,57.42
2023-05-14T02:45:58.318Z,59.00
2023-05-14T02:46:58.348Z,58.23
2023-05-14T02:47:58.342Z,57.00
2023-05-14T02:48:58.257Z,63.29
2023-05-14T02:49:58.257Z,58.36
2023-05-14T02:50:58.273Z,57.06
2023-05-14T02:51:58.245Z,57.20
2023-05-14T02:52:58.238Z,57.03
2023-05-14T02:53:58.229Z,57.19
2023-05-14T02:54:58.264Z,57.29
2023-05-14T02:55:58.234Z,57.45
2023-05-14T02:56:58.253Z,61.28
2023-05-14T02:57:58.220Z,57.53
2023-05-14T02:58:58.203Z,62.18
2023-05-14T02:59:58.197Z,58.44
2023-05-14T03:00:58.199Z,58.58
2023-05-14T03:01:58.244Z,58.45
2023-05-14T03:02:58.213Z,58.67
2023-05-14T03:03:58.176Z,61.10
2023-05-14T03:04:58.172Z,58.17
2023-05-14T03:05:58.183Z,62.51
2023-05-14T03:06:58.210Z,61.41
2023-05-14T03:07:59.240Z,62.35
2023-05-14T03:08:58.162Z,58.48
2023-05-14T03:09:58.156Z,58.65
2023-05-14T03:10:58.138Z,62.83
2023-05-14T03:11:58.145Z,64.44
2023-05-14T03:12:58.121Z,62.18
2023-05-14T03:13:58.123Z,57.11
2023-05-14T03:14:58.112Z,59.82
2023-05-14T03:15:58.114Z,62.67
2023-05-14T03:16:58.168Z,56.95
2023-05-14T03:17:58.207Z,56.73
2023-05-14T03:18:58.149Z,62.33
2023-05-14T03:19:58.084Z,62.23
2023-05-14T03:20:58.098Z,58.21
2023-05-14T03:21:58.073Z,58.40
2023-05-14T03:22:58.061Z,59.92
2023-05-14T03:23:58.085Z,57.26
2023-05-14T03:24:58.065Z,56.78
2023-05-14T03:25:58.048Z,58.82
2023-05-14T03:26:58.055Z,59.52
2023-05-14T03:27:58.037Z,55.20
2023-05-14T03:28:58.071Z,60.42
2023-05-14T03:29:58.037Z,63.89
2023-05-14T03:30:58.052Z,58.10
2023-05-14T03:31:58.009Z,61.12
2023-05-14T03:32:58.086Z,60.17
2023-05-14T03:33:58.020Z,59.40
2023-05-14T03:34:58.053Z,58.40
2023-05-14T03:35:58.006Z,56.91
2023-05-14T03:36:57.983Z,66.48
2023-05-14T03:37:57.994Z,67.93
2023-05-14T03:38:57.993Z,62.01
2023-05-14T03:39:58.006Z,55.60
2023-05-14T03:40:57.982Z,55.18
2023-05-14T03:41:57.975Z,59.55
2023-05-14T03:42:57.981Z,62.46
2023-05-14T03:43:57.950Z,64.80
2023-05-14T03:44:57.961Z,56.06
2023-05-14T03:45:57.981Z,59.54
2023-05-14T03:46:57.935Z,63.53
2023-05-14T03:47:57.976Z,65.26
2023-05-14T03:48:58.013Z,56.38
2023-05-14T03:49:57.933Z,56.07
2023-05-14T03:50:57.946Z,59.01
2023-05-14T03:51:57.907Z,55.62
2023-05-14T03:52:57.891Z,68.29
2023-05-14T03:53:57.902Z,63.84
2023-05-14T03:54:57.912Z,63.66
2023-05-14T03:55:57.892Z,58.62
2023-05-14T03:56:57.866Z,61.60
2023-05-14T03:57:57.861Z,65.10
2023-05-14T03:58:57.864Z,60.09
2023-05-14T03:59:57.861Z,60.34
2023-05-14T04:00:57.860Z,60.01
2023-05-14T04:01:57.860Z,57.52
2023-05-14T04:02:57.928Z,56.32
2023-05-14T04:03:57.921Z,65.51
2023-05-14T04:04:57.896Z,60.68
2023-05-14T04:05:57.851Z,62.83
2023-05-14T04:06:57.855Z,67.60
2023-05-14T04:07:57.846Z,61.56
2023-05-14T04:08:57.863Z,59.15
2023-05-14T04:09:57.818Z,59.92
2023-05-14T04:10:57.789Z,55.50
2023-05-14T04:11:57.829Z,62.82
2023-05-14T04:12:57.776Z,68.34
2023-05-14T04:13:57.782Z,64.13
2023-05-14T04:14:57.776Z,64.14
2023-05-14T04:15:57.798Z,53.79
2023-05-14T04:16:59.537Z,54.53
2023-05-14T04:17:57.848Z,55.21
2023-05-14T04:18:57.800Z,60.28
2023-05-14T04:19:57.751Z,60.68
2023-05-14T04:20:57.732Z,66.94
2023-05-14T04:21:57.730Z,60.09
2023-05-14T04:22:57.734Z,57.33
2023-05-14T04:23:57.754Z,54.24
2023-05-14T04:24:57.733Z,64.30
2023-05-14T04:25:57.724Z,57.89
2023-05-14T04:26:57.711Z,59.04
2023-05-14T04:27:57.687Z,61.42
2023-05-14T04:28:57.691Z,63.06
2023-05-14T04:29:57.700Z,57.27
2023-05-14T04:30:57.683Z,55.77
2023-05-14T04:31:57.727Z,57.86
2023-05-14T04:32:57.735Z,59.29
2023-05-14T04:33:57.682Z,59.01
2023-05-14T04:34:57.690Z,59.97
2023-05-14T04:35:57.657Z,63.53
2023-05-14T04:36:57.633Z,56.73
2023-05-14T04:37:57.692Z,64.63
2023-05-14T04:38:57.633Z,64.94
2023-05-14T04:39:57.654Z,61.44
2023-05-14T04:40:57.626Z,62.01
2023-05-14T04:41:57.647Z,60.45
2023-05-14T04:42:57.605Z,58.39
2023-05-14T04:43:57.589Z,55.81
2023-05-14T04:44:57.627Z,63.01
2023-05-14T04:45:57.690Z,60.89
2023-05-14T04:46:57.578Z,58.24
2023-05-14T04:47:57.621Z,64.00
2023-05-14T04:48:57.626Z,62.13
2023-05-14T04:49:57.573Z,57.14
2023-05-14T04:50:57.574Z,58.78
2023-05-14T04:51:57.552Z,59.90
2023-05-14T04:52:57.547Z,56.08
2023-05-14T04:53:57.540Z,63.39
2023-05-14T04:54:57.564Z,64.64
2023-05-14T04:55:57.533Z,63.33
2023-05-14T04:56:57.518Z,67.53
2023-05-14T04:57:57.540Z,55.10
2023-05-14T04:58:57.543Z,60.39
2023-05-14T04:59:57.524Z,56.01
2023-05-14T05:00:57.525Z,56.32
2023-05-14T05:01:57.499Z,69.00
2023-05-14T05:02:57.526Z,60.16
2023-05-14T05:03:57.532Z,59.24
2023-05-14T05:04:57.484Z,61.80
2023-05-14T05:05:57.466Z,69.51
2023-05-14T05:06:57.469Z,66.57
2023-05-14T05:07:57.439Z,61.54
2023-05-14T05:08:58.017Z,65.54
2023-05-14T05:09:57.453Z,61.47
2023-05-14T05:10:57.496Z,62.68
2023-05-14T05:11:57.434Z,56.68
2023-05-14T05:12:57.415Z,71.83
2023-05-14T05:13:57.436Z,68.50
2023-05-14T05:14:57.415Z,64.33
2023-05-14T05:15:57.453Z,61.08
2023-05-14T05:16:57.399Z,54.58
2023-05-14T05:17:57.428Z,60.94
2023-05-14T05:18:57.471Z,61.20
2023-05-14T05:19:57.460Z,64.65
2023-05-14T05:20:57.387Z,64.40
2023-05-14T05:21:57.371Z,68.49
2023-05-14T05:22:57.389Z,62.18
2023-05-14T05:23:57.340Z,60.61
2023-05-14T05:24:57.327Z,63.55
2023-05-14T05:25:57.340Z,60.76
2023-05-14T05:26:57.328Z,65.03
2023-05-14T05:27:57.344Z,63.14
2023-05-14T05:28:57.358Z,62.73
2023-05-14T05:29:57.322Z,67.54
2023-05-14T05:30:57.393Z,69.38
2023-05-14T05:31:57.323Z,63.94
2023-05-14T05:32:57.331Z,63.72
2023-05-14T05:33:57.277Z,62.82
2023-05-14T05:34:58.315Z,62.79
2023-05-14T05:35:57.281Z,61.26
2023-05-14T05:36:57.333Z,64.43
2023-05-14T05:37:58.588Z,64.50
2023-05-14T05:38:57.296Z,62.61
2023-05-14T05:39:57.249Z,64.02
2023-05-14T05:40:57.269Z,56.92
2023-05-14T05:41:57.232Z,64.19
2023-05-14T05:42:57.215Z,62.92
2023-05-14T05:43:57.222Z,61.39
2023-05-14T05:44:57.226Z,64.44
2023-05-14T05:45:57.213Z,65.62
2023-05-14T05:46:57.366Z,71.01
2023-05-14T05:47:57.247Z,67.36
2023-05-14T05:48:57.299Z,61.95
2023-05-14T05:49:57.182Z,56.64
2023-05-14T05:50:57.213Z,65.31
2023-05-14T05:51:57.178Z,63.84
2023-05-14T05:52:57.134Z,64.74
2023-05-14T05:53:57.125Z,64.57
2023-05-14T05:54:57.175Z,59.65
2023-05-14T05:55:57.115Z,69.87
2023-05-14T05:56:57.137Z,67.01
2023-05-14T05:57:57.142Z,67.43
2023-05-14T05:58:57.964Z,70.36
2023-05-14T05:59:57.134Z,62.01
2023-05-14T06:00:57.099Z,67.24
2023-05-14T06:01:57.158Z,65.95
2023-05-14T06:02:57.102Z,66.32
2023-05-14T06:03:57.084Z,69.67
2023-05-14T06:04:57.111Z,67.10
2023-05-14T06:05:58.053Z,63.87
2023-05-14T06:06:57.118Z,62.70
2023-05-14T06:07:57.048Z,65.37
2023-05-14T06:08:57.108Z,63.53
2023-05-14T06:09:58.046Z,59.94
2023-05-14T06:10:57.088Z,67.99
2023-05-14T06:11:57.026Z,63.51
2023-05-14T06:12:57.014Z,61.29
2023-05-14T06:13:57.020Z,68.28
2023-05-14T06:14:57.044Z,71.02
2023-05-14T06:15:56.998Z,66.86
2023-05-14T06:16:57.058Z,67.47
2023-05-14T06:17:57.081Z,60.15
2023-05-14T06:18:57.047Z,69.99
2023-05-14T06:19:56.992Z,70.28
2023-05-14T06:20:56.993Z,65.20
2023-05-14T06:21:56.965Z,63.12
2023-05-14T06:22:56.958Z,62.35
2023-05-14T06:23:56.986Z,68.92
2023-05-14T06:24:56.947Z,67.24
2023-05-14T06:25:56.931Z,67.36
2023-05-14T06:26:56.916Z,62.37
2023-05-14T06:27:56.905Z,67.65
2023-05-14T06:28:56.960Z,68.37
2023-05-14T06:29:56.920Z,65.54
2023-05-14T06:30:56.893Z,71.71
2023-05-14T06:31:56.979Z,69.29
2023-05-14T06:32:56.953Z,66.94
2023-05-14T06:33:56.876Z,64.82
2023-05-14T06:34:56.901Z,67.38
2023-05-14T06:35:56.988Z,60.71
2023-05-14T06:36:56.864Z,65.02
2023-05-14T06:37:56.862Z,64.27
2023-05-14T06:38:56.844Z,66.19
2023-05-14T06:39:57.887Z,64.76
2023-05-14T06:40:56.850Z,67.08
2023-05-14T06:41:56.824Z,68.95
2023-05-14T06:42:56.844Z,65.90
2023-05-14T06:43:56.831Z,69.84
2023-05-14T06:44:56.825Z,71.20
2023-05-14T06:45:56.821Z,67.94
2023-05-14T06:46:56.807Z,69.99
2023-05-14T06:47:56.864Z,68.94
2023-05-14T06:48:58.924Z,64.63
2023-05-14T06:49:56.785Z,63.23
2023-05-14T06:50:56.764Z,69.13
2023-05-14T06:51:56.813Z,71.34
2023-05-14T06:52:56.756Z,70.29
2023-05-14T06:53:56.757Z,68.17
2023-05-14T06:54:56.769Z,71.40
2023-05-14T06:55:56.729Z,62.19
2023-05-14T06:56:57.105Z,66.21
2023-05-14T06:57:56.724Z,69.37
2023-05-14T06:58:56.745Z,68.26
2023-05-14T06:59:56.731Z,72.98
2023-05-14T07:00:56.736Z,70.22
2023-05-14T07:01:56.816Z,69.47
2023-05-14T07:02:56.737Z,70.87
2023-05-14T07:03:56.776Z,71.27
2023-05-14T07:04:56.729Z,69.29
2023-05-14T07:05:56.683Z,65.44
2023-05-14T07:06:56.706Z,70.77
2023-05-14T07:07:56.717Z,69.01
2023-05-14T07:08:56.665Z,69.17
2023-05-14T07:09:56.650Z,65.44
2023-05-14T07:10:56.676Z,65.63
2023-05-14T07:11:56.659Z,61.37
2023-05-14T07:12:56.676Z,68.91
2023-05-14T07:13:56.640Z,65.09
2023-05-14T07:14:56.695Z,69.78
2023-05-14T07:15:56.654Z,67.13
2023-05-14T07:16:56.692Z,64.51
2023-05-14T07:17:56.644Z,69.08
2023-05-14T07:18:56.635Z,70.57
2023-05-14T07:19:56.627Z,70.13
2023-05-14T07:20:56.601Z,68.85
2023-05-14T07:21:56.592Z,67.82
2023-05-14T07:22:56.614Z,73.86
2023-05-14T07:23:56.573Z,69.63
2023-05-14T07:24:56.564Z,69.92
2023-05-14T07:25:56.628Z,68.62
2023-05-14T07:26:56.558Z,71.19
2023-05-14T07:27:56.549Z,71.98
2023-05-14T07:28:56.545Z,66.85
2023-05-14T07:29:56.550Z,68.72
2023-05-14T07:30:56.590Z,69.13
2023-05-14T07:31:56.537Z,68.94
2023-05-14T07:32:56.540Z,68.34
2023-05-14T07:33:56.529Z,70.49
2023-05-14T07:34:56.500Z,68.22
2023-05-14T07:35:56.504Z,71.38
2023-05-14T07:36:57.485Z,69.73
2023-05-14T07:37:56.554Z,72.73
2023-05-14T07:38:56.489Z,69.59
2023-05-14T07:39:57.442Z,68.18
2023-05-14T07:40:56.485Z,64.13
2023-05-14T07:41:56.514Z,74.01
2023-05-14T07:42:56.454Z,56.41
2023-05-14T07:43:56.444Z,68.73
2023-05-14T07:44:56.441Z,70.07
2023-05-14T07:45:56.464Z,66.95
2023-05-14T07:46:56.565Z,58.89
2023-05-14T07:47:56.603Z,68.89
2023-05-14T07:48:56.439Z,70.16
2023-05-14T07:49:56.506Z,65.64
2023-05-14T07:50:56.401Z,62.04
2023-05-14T07:51:56.386Z,72.41
2023-05-14T07:52:56.392Z,70.48
2023-05-14T07:53:56.396Z,69.39
2023-05-14T07:54:56.365Z,67.97
2023-05-14T07:55:56.371Z,71.05
2023-05-14T07:56:56.500Z,68.92
2023-05-14T07:57:56.410Z,69.86
2023-05-14T07:58:56.377Z,72.28
2023-05-14T07:59:56.359Z,67.99
2023-05-14T08:00:56.361Z,64.42
2023-05-14T08:01:56.398Z,68.11
2023-05-14T08:02:56.616Z,73.29
2023-05-14T08:03:56.429Z,68.87
2023-05-14T08:04:56.386Z,62.77
2023-05-14T08:05:56.315Z,70.47
2023-05-14T08:06:56.366Z,68.56
2023-05-14T08:07:56.343Z,70.64
2023-05-14T08:08:56.282Z,70.33
2023-05-14T08:09:56.284Z,67.81
2023-05-14T08:10:56.347Z,69.46
2023-05-14T08:11:56.292Z,71.81
2023-05-14T08:12:56.305Z,74.87
2023-05-14T08:13:56.258Z,70.81
2023-05-14T08:14:56.277Z,69.61
2023-05-14T08:15:56.322Z,67.21
2023-05-14T08:16:56.335Z,71.98
2023-05-14T08:17:56.315Z,66.90
2023-05-14T08:18:56.330Z,65.75
2023-05-14T08:19:56.255Z,70.40
2023-05-14T08:20:56.253Z,67.77
2023-05-14T08:21:56.221Z,72.97
2023-05-14T08:22:56.222Z,71.93
2023-05-14T08:23:56.246Z,72.85
2023-05-14T08:24:56.213Z,71.53
2023-05-14T08:25:56.197Z,73.81
2023-05-14T08:26:56.177Z,61.98
2023-05-14T08:27:56.351Z,70.49
2023-05-14T08:28:56.173Z,68.29
2023-05-14T08:29:56.197Z,73.17
2023-05-14T08:30:56.281Z,70.71
2023-05-14T08:31:56.156Z,69.03
2023-05-14T08:32:56.182Z,72.01
2023-05-14T08:33:56.160Z,71.84
2023-05-14T08:34:56.165Z,73.19
2023-05-14T08:35:56.191Z,70.43
2023-05-14T08:36:56.114Z,70.32
2023-05-14T08:37:56.126Z,69.18
2023-05-14T08:38:56.105Z,71.09
2023-05-14T08:39:56.088Z,63.96
2023-05-14T08:40:56.123Z,73.10
2023-05-14T08:41:56.168Z,68.76
2023-05-14T08:42:56.081Z,69.26
2023-05-14T08:43:56.082Z,67.90
2023-05-14T08:44:56.163Z,68.79
2023-05-14T08:45:56.178Z,69.84
2023-05-14T08:46:57.000Z,67.98
2023-05-14T08:47:56.179Z,67.14
2023-05-14T08:48:56.109Z,69.01
2023-05-14T08:49:56.080Z,68.75
2023-05-14T08:50:56.058Z,64.69
2023-05-14T08:51:56.066Z,70.11
2023-05-14T08:52:56.018Z,69.36
2023-05-14T08:53:56.040Z,71.11
2023-05-14T08:54:57.024Z,68.76
2023-05-14T08:55:56.035Z,65.58
2023-05-14T08:56:56.071Z,68.70
2023-05-14T08:57:56.059Z,72.68
2023-05-14T08:58:56.030Z,70.02
2023-05-14T08:59:56.003Z,70.11
2023-05-14T09:00:55.974Z,73.65
2023-05-14T09:01:56.063Z,71.75
2023-05-14T09:02:55.969Z,67.02
2023-05-14T09:03:56.018Z,72.73
2023-05-14T09:04:56.920Z,70.30
2023-05-14T09:05:56.737Z,71.19
2023-05-14T09:06:55.937Z,68.96
2023-05-14T09:07:55.917Z,69.88
2023-05-14T09:08:55.917Z,70.33
2023-05-14T09:09:55.928Z,68.82
2023-05-14T09:10:55.947Z,69.02
2023-05-14T09:11:55.903Z,62.69
2023-05-14T09:12:55.885Z,69.40
2023-05-14T09:13:55.919Z,65.31
2023-05-14T09:14:55.917Z,66.97
2023-05-14T09:15:55.958Z,68.07
2023-05-14T09:16:55.877Z,73.12
2023-05-14T09:17:55.923Z,70.45
2023-05-14T09:18:55.983Z,72.98
2023-05-14T09:19:55.854Z,73.33
2023-05-14T09:20:55.864Z,68.35
2023-05-14T09:21:56.079Z,72.80
2023-05-14T09:22:55.850Z,69.99
2023-05-14T09:23:55.824Z,72.04
2023-05-14T09:24:55.867Z,70.96
2023-05-14T09:25:55.811Z,69.16
2023-05-14T09:26:55.838Z,68.15
2023-05-14T09:27:58.519Z,73.61
2023-05-14T09:28:55.804Z,69.46
2023-05-14T09:29:55.779Z,72.85
2023-05-14T09:30:55.774Z,70.33
2023-05-14T09:31:55.832Z,70.42
2023-05-14T09:32:55.873Z,68.76
2023-05-14T09:33:55.749Z,73.27
2023-05-14T09:34:55.790Z,68.78
2023-05-14T09:35:58.177Z,72.72
2023-05-14T09:36:55.738Z,68.35
2023-05-14T09:37:55.764Z,69.71
2023-05-14T09:38:55.721Z,71.25
2023-05-14T09:39:55.731Z,68.09
2023-05-14T09:40:55.702Z,66.88
2023-05-14T09:41:55.731Z,69.62
2023-05-14T09:42:55.916Z,73.33
2023-05-14T09:43:55.707Z,68.40
2023-05-14T09:45:55.698Z,69.88
2023-05-14T09:46:55.837Z,73.77
2023-05-14T09:47:55.939Z,73.07
2023-05-14T09:48:55.677Z,68.44
2023-05-14T09:49:55.749Z,72.35
2023-05-14T09:50:55.727Z,68.26
2023-05-14T09:51:55.657Z,72.27
2023-05-14T09:52:55.649Z,64.86
2023-05-14T09:53:55.622Z,71.97
2023-05-14T09:54:55.611Z,71.40
2023-05-14T09:55:56.623Z,71.17
2023-05-14T09:56:55.958Z,71.49
2023-05-14T09:57:56.605Z,70.39
2023-05-14T09:58:55.623Z,67.13
2023-05-14T09:59:55.635Z,72.31
2023-05-14T10:00:56.643Z,71.04
2023-05-14T10:01:55.571Z,70.84
2023-05-14T10:02:55.610Z,74.19
2023-05-14T10:03:55.605Z,67.55
2023-05-14T10:04:55.577Z,72.17
2023-05-14T10:05:55.557Z,69.29
2023-05-14T10:06:55.545Z,68.97
2023-05-14T10:07:55.550Z,72.30
2023-05-14T10:08:55.574Z,68.53
2023-05-14T10:09:57.189Z,69.16
2023-05-14T10:10:55.553Z,65.55
2023-05-14T10:11:55.533Z,71.45
2023-05-14T10:12:55.586Z,70.70
2023-05-14T10:13:55.510Z,68.36
2023-05-14T10:14:55.512Z,71.54
2023-05-14T10:15:55.506Z,73.44
2023-05-14T10:16:55.573Z,74.11
2023-05-14T10:17:55.527Z,72.83
2023-05-14T10:18:57.314Z,69.00
2023-05-14T10:19:56.467Z,69.28
2023-05-14T10:20:55.483Z,70.21
2023-05-14T10:21:55.459Z,68.66
2023-05-14T10:22:55.473Z,72.34
2023-05-14T10:23:55.451Z,72.31
2023-05-14T10:24:59.841Z,62.95
2023-05-14T10:25:55.438Z,70.61
2023-05-14T10:26:55.444Z,70.36
2023-05-14T10:27:55.432Z,72.48
2023-05-14T10:28:55.403Z,65.72
2023-05-14T10:29:55.452Z,71.88
2023-05-14T10:30:55.462Z,71.10
2023-05-14T10:31:55.490Z,70.39
2023-05-14T10:32:55.488Z,64.70
2023-05-14T10:33:55.754Z,66.67
2023-05-14T10:34:55.394Z,70.52
2023-05-14T10:35:55.383Z,69.80
2023-05-14T10:36:55.372Z,72.99
2023-05-14T10:37:55.361Z,70.14
2023-05-14T10:38:55.366Z,72.22
2023-05-14T10:39:55.401Z,67.43
2023-05-14T10:40:55.373Z,72.55
2023-05-14T10:41:55.355Z,67.56
2023-05-14T10:42:55.370Z,68.70
2023-05-14T10:43:55.332Z,73.51
2023-05-14T10:44:55.342Z,70.83
2023-05-14T10:45:55.328Z,73.11
2023-05-14T10:46:55.372Z,68.32
2023-05-14T10:47:55.372Z,72.41
2023-05-14T10:48:55.380Z,69.20
2023-05-14T10:49:55.330Z,72.21
2023-05-14T10:50:55.456Z,67.02
2023-05-14T10:51:55.315Z,71.55
2023-05-14T10:52:55.287Z,68.43
2023-05-14T10:53:55.307Z,70.65
2023-05-14T10:54:55.287Z,67.14
2023-05-14T10:55:55.268Z,69.82
2023-05-14T10:56:55.253Z,68.28
2023-05-14T10:57:55.275Z,71.82
2023-05-14T10:58:55.350Z,67.46
2023-05-14T10:59:55.298Z,62.98
2023-05-14T11:00:55.268Z,70.83
2023-05-14T11:01:55.356Z,68.53
2023-05-14T11:02:55.301Z,72.97
2023-05-14T11:03:55.266Z,70.84
2023-05-14T11:04:55.254Z,70.54
2023-05-14T11:05:55.260Z,71.46
2023-05-14T11:06:55.213Z,69.92
2023-05-14T11:07:55.191Z,71.96
2023-05-14T11:08:56.113Z,69.50
2023-05-14T11:09:55.191Z,72.35
2023-05-14T11:10:55.209Z,70.45
2023-05-14T11:11:55.180Z,72.30
2023-05-14T11:12:55.188Z,68.71
2023-05-14T11:13:55.247Z,71.27
2023-05-14T11:14:55.194Z,67.89
2023-05-14T11:15:55.213Z,69.68
2023-05-14T11:16:55.264Z,66.39
2023-05-14T11:17:55.225Z,72.10
2023-05-14T11:18:55.284Z,71.62
2023-05-14T11:19:55.165Z,68.78
2023-05-14T11:20:56.418Z,69.31
2023-05-14T11:21:57.071Z,70.98
2023-05-14T11:22:56.583Z,71.80
2023-05-14T11:23:55.641Z,71.47
2023-05-14T11:24:56.834Z,71.17
2023-05-14T11:25:57.182Z,70.14
2023-05-14T11:26:55.146Z,72.96
2023-05-14T11:27:55.183Z,72.18
2023-05-14T11:28:55.072Z,66.24
2023-05-14T11:29:55.080Z,72.58
2023-05-14T11:30:55.089Z,68.00
2023-05-14T11:31:55.067Z,71.52
2023-05-14T11:32:55.084Z,71.18
2023-05-14T11:33:55.068Z,71.61
2023-05-14T11:34:55.105Z,72.12
2023-05-14T11:35:55.050Z,71.39
2023-05-14T11:36:55.058Z,71.59
2023-05-14T11:37:55.083Z,67.62
2023-05-14T11:38:55.061Z,72.87
2023-05-14T11:39:55.110Z,66.15
2023-05-14T11:40:55.030Z,71.00
2023-05-14T11:41:55.092Z,70.49
2023-05-14T11:42:55.035Z,73.54
2023-05-14T11:43:54.999Z,70.60
2023-05-14T11:44:55.037Z,70.86
2023-05-14T11:45:55.062Z,70.37
2023-05-14T11:46:54.977Z,71.53
2023-05-14T11:47:55.127Z,70.89
2023-05-14T11:48:54.973Z,67.96
2023-05-14T11:49:55.045Z,71.88
2023-05-14T11:50:54.949Z,70.46
2023-05-14T11:51:55.010Z,74.10
2023-05-14T11:52:55.078Z,70.52
2023-05-14T11:53:54.988Z,70.17
2023-05-14T11:54:55.024Z,69.00
2023-05-14T11:55:54.993Z,71.40
2023-05-14T11:56:55.560Z,71.49
2023-05-14T11:57:54.992Z,70.65
2023-05-14T11:58:54.992Z,71.32
2023-05-14T11:59:54.980Z,73.96
2023-05-14T12:00:54.913Z,69.82
2023-05-14T12:01:54.878Z,70.49
2023-05-14T12:02:54.980Z,67.01
2023-05-14T12:03:55.981Z,71.10
2023-05-14T12:04:54.980Z,68.01
2023-05-14T12:05:54.883Z,72.51
2023-05-14T12:06:54.841Z,70.43
2023-05-14T12:07:55.105Z,67.13
2023-05-14T12:08:54.882Z,69.31
2023-05-14T12:09:54.812Z,72.15
2023-05-14T12:10:54.883Z,65.06
2023-05-14T12:11:54.880Z,70.65
2023-05-14T12:12:54.800Z,70.92
2023-05-14T12:13:54.811Z,68.99
2023-05-14T12:14:54.797Z,71.91
2023-05-14T12:15:54.820Z,70.99
2023-05-14T12:16:54.803Z,69.95
2023-05-14T12:17:54.823Z,69.66
2023-05-14T12:18:54.802Z,68.34
2023-05-14T12:19:54.787Z,69.52
2023-05-14T12:20:54.830Z,72.00
2023-05-14T12:21:54.796Z,77.62
2023-05-14T12:22:54.788Z,72.00
2023-05-14T12:23:54.774Z,67.36
2023-05-14T12:24:54.779Z,72.60
2023-05-14T12:25:54.794Z,69.28
2023-05-14T12:26:54.868Z,73.17
2023-05-14T12:27:54.848Z,72.11
2023-05-14T12:28:54.777Z,71.58
2023-05-14T12:29:54.757Z,69.90
2023-05-14T12:30:54.798Z,70.74
2023-05-14T12:31:54.820Z,73.27
2023-05-14T12:32:54.841Z,72.47
2023-05-14T12:33:54.832Z,70.79
2023-05-14T12:34:54.779Z,70.09
2023-05-14T12:35:54.695Z,72.72
2023-05-14T12:36:54.694Z,70.25
2023-05-14T12:37:54.695Z,70.97
2023-05-14T12:38:54.681Z,71.77
2023-05-14T12:39:54.711Z,70.24
2023-05-14T12:40:54.664Z,68.00
2023-05-14T12:41:54.708Z,74.61
2023-05-14T12:42:56.664Z,69.82
2023-05-14T12:43:55.680Z,70.11
2023-05-14T12:44:54.673Z,69.89
2023-05-14T12:45:54.670Z,71.51
2023-05-14T12:46:54.687Z,72.30
2023-05-14T12:47:54.676Z,67.71
2023-05-14T12:48:54.682Z,70.22
2023-05-14T12:49:54.615Z,66.18
2023-05-14T12:50:54.726Z,71.52
2023-05-14T12:52:07.854Z,67.50
2023-05-14T12:52:56.599Z,72.19
2023-05-14T12:53:54.584Z,72.12